In Rescue
 
Open Full Screen Window  High Contrast Mode
Wind Gusting 00 knots
07
November 19, 2019 12:41 PM CST
Weather Information
Wind Direction
  290 °
Wind Speed
  07 kt (8 mph)
Wind Gust
  00 kt (0 mph)
Altimeter
29.81 in
Visibility
10 SM
Temperature
07° C
45° F
Dewpoint
04° C
39° F
Humidity
81%
1hr Rain Fall
00.00 in.
24hr Rain Fall
00.02 in.
Sky Condition
Overcast @ 3,900 ft
Scattered @ 1,200 ft
VFR

METAR KAUM 191841Z AUTO 29007KT 10SM SCT012 OVC039 07/04 A2981 RMK AO2

FAA Disclaimer: The data displayed is for advisory purposes only and is not to be used for flight planning or operations.